首页
METAR-TAF:

METAR-TAF

机场 :

Bluefield, 西維吉尼亞州, 美国

纬度: 37-17-45N, 经度: 081-12-28W, 海拔: 871米

当前天气观测

该预报发布于20分钟前的13:52 UTC
风速7节,风向西转西北,有时为16节阵风
温度 3°C
湿度 93%
气压 1017 hPa
能見度: 16.1公里
多云层高于700英尺
阴天层高于1200英尺

METAR: KBLF 201352Z AUTO 30007G16KT 10SM BKN007 OVC012 03/02 A3003 RMK AO2 RAB20E43 CIG 005V010 SLP170 P0001 T00280017

时间: 09:12 (14:12 UTC)

预报

该预报发布于1小时和4分钟前的13:08 UTC
预报有效从20日的 13点(UTC)到 21日的 12点(UTC)
风速9节,风向西转西北,有时为19节阵风
能見度: 10公里
阴天层高于1500英尺
短暂存在
从 20日的 13点(UTC)到 20日的 17点(UTC)
能見度: 8.0公里
阴天层高于900英尺
小雨, 雪
从 20日的 1700点(UTC)
风速12节,风向西转西北,有时为20节阵风
能見度: 10公里
散云层高于1300英尺
阴天层高于2300英尺
小雨
从 20日的 1800点(UTC)
风速13节,风向西转西北,有时为21节阵风
能見度: 10公里
多云层高于2500英尺
阴天层高于5000英尺
从 20日的 2300点(UTC)
风速9节,风向西转西北
能見度: 10公里
多云层高于1000英尺
从 21日的 0800点(UTC)
风速3节,风向多变
能見度: 10公里
散云层高于2000英尺

TAF: KBLF 201308Z 2013/2112 29009G19KT P6SM OVC015 TEMPO 2013/2017 5SM -RASN OVC009 FM201700 29012G20KT P6SM -RA SCT013 OVC023 FM201800 29013G21KT P6SM BKN025 OVC050 FM202300 30009KT P6SM BKN010 FM210800 VRB03KT P6SM SCT020

超过4000个机场的气象观测和天气预报(METAR&TAF报告)。

可查询的气象台以黄色和红色小点在地图上表示。

将鼠标移到小点上方,可查看气象台名称。

然后点击查看天气观测和预报。

如需切换地图:点击带黑十字的绿色按钮放大地图;点击带横线的绿色按钮缩小地图;或者点击绿色箭头查看邻近地区的地图。


METAR-TAF: